PADK Airport Information

Runway Information
Runway 05 Length 7790 ft width 200 ft
Elevation 17 ft Threshold 0 ft Heading 61
Runway 23 Length 7790 ft Width 200 ft
Elevation 15 ft Threshold 0 ft Heading 241
Runway 18 Length 7605 ft width 200 ft
Elevation 6 ft Threshold 0 ft Heading 185
Runway 36 Length 7605 ft Width 200 ft
Elevation 4 ft Threshold 0 ft Heading 5
Airport Frequencies
Airport Navaids
Type NDB-DME Name Mount Moffett Frequency 530 KHZ
Type TACAN Name Adak Frequency 113000 KHZ
Airport Weather Information & NOTAM
ADDS - METARS form results

(1221 UTC 23 January 2019)
Data provider http://aviationweather.gov/metar/data/
 
METAR text: PADK 231156Z AUTO 27006KT 10SM OVC038 00/M04 A2885 RMK AO2 SLP769 60000 70012 T00001044 10006 20000 52018 FZRANO
Conditions at: PADK (ADAK NAS , AK, US) observed 1156 UTC 23 January 2019
Temperature: 0.0°C (32°F)
Dewpoint: -4.4°C (24°F) [RH = 72%]
Pressure (altimeter): 28.85 inches Hg (977.1 mb)
[Sea-level pressure:  976.9 mb]
Winds: from the W (270 degrees) at 7 MPH (6 knots; 3.1 m/s)
Visibility: 10 or more miles (16+ km)
Ceiling: 3800 feet AGL
Clouds: overcast cloud deck at 3800 feet AGL
Weather: automated observation with no human augmentation;
there may or may not be significant weather present at this time